sensor_id;sensor_type;location;lat;lon;timestamp;pressure;altitude;pressure_sealevel;temperature;humidity
23241;BME280;11789;53.482;9.862;2022-08-11T00:00:33;102572.59;;;18.40;73.46
23241;BME280;11789;53.482;9.862;2022-08-11T00:03:04;102558.59;;;18.41;73.43
23241;BME280;11789;53.482;9.862;2022-08-11T00:05:35;102559.50;;;18.40;73.46
23241;BME280;11789;53.482;9.862;2022-08-11T00:08:08;102554.25;;;18.37;73.52
23241;BME280;11789;53.482;9.862;2022-08-11T00:10:36;102552.50;;;18.38;73.56
23241;BME280;11789;53.482;9.862;2022-08-11T00:13:04;102553.38;;;18.38;73.70
23241;BME280;11789;53.482;9.862;2022-08-11T00:15:41;102551.63;;;18.39;73.68
23241;BME280;11789;53.482;9.862;2022-08-11T00:18:08;102559.47;;;18.39;73.73
23241;BME280;11789;53.482;9.862;2022-08-11T00:20:36;102556.03;;;18.35;73.80
23241;BME280;11789;53.482;9.862;2022-08-11T00:23:15;102556.06;;;18.28;73.77
23241;BME280;11789;53.482;9.862;2022-08-11T00:25:47;102554.34;;;18.27;73.84
23241;BME280;11789;53.482;9.862;2022-08-11T00:28:31;102554.34;;;18.27;73.95
23241;BME280;11789;53.482;9.862;2022-08-11T00:31:00;102560.41;;;18.32;73.99
23241;BME280;11789;53.482;9.862;2022-08-11T00:33:41;102549.09;;;18.27;74.01
23241;BME280;11789;53.482;9.862;2022-08-11T00:36:08;102556.13;;;18.20;74.36
23241;BME280;11789;53.482;9.862;2022-08-11T00:38:38;102562.25;;;18.16;74.43
23241;BME280;11789;53.482;9.862;2022-08-11T00:41:15;102557.00;;;18.14;74.69
23241;BME280;11789;53.482;9.862;2022-08-11T00:49:54;102552.50;;;18.39;74.38
23241;BME280;11789;53.482;9.862;2022-08-11T00:55:44;102553.34;;;18.45;74.06
23241;BME280;11789;53.482;9.862;2022-08-11T01:07:10;102561.28;;;18.32;74.10
23241;BME280;11789;53.482;9.862;2022-08-11T01:12:44;102555.25;;;18.21;74.59
23241;BME280;11789;53.482;9.862;2022-08-11T01:15:48;102560.47;;;18.18;74.92
23241;BME280;11789;53.482;9.862;2022-08-11T01:18:57;102558.75;;;18.17;75.27
23241;BME280;11789;53.482;9.862;2022-08-11T01:38:34;102563.16;;;18.07;75.04
23241;BME280;11789;53.482;9.862;2022-08-11T01:50:06;102557.16;;;17.81;76.12
23241;BME280;11789;53.482;9.862;2022-08-11T01:56:27;102560.69;;;17.75;76.67
23241;BME280;11789;53.482;9.862;2022-08-11T01:58:42;102561.53;;;17.71;76.70
23241;BME280;11789;53.482;9.862;2022-08-11T02:01:44;102560.69;;;17.64;76.90
23241;BME280;11789;53.482;9.862;2022-08-11T02:04:53;102556.34;;;17.56;77.06
23241;BME280;11789;53.482;9.862;2022-08-11T02:10:24;102552.00;;;17.52;76.87
23241;BME280;11789;53.482;9.862;2022-08-11T02:13:33;102554.63;;;17.55;76.85
23241;BME280;11789;53.482;9.862;2022-08-11T02:18:55;102547.66;;;17.42;77.52
23241;BME280;11789;53.482;9.862;2022-08-11T02:21:54;102548.53;;;17.45;77.10
23241;BME280;11789;53.482;9.862;2022-08-11T02:25:13;102549.38;;;17.47;77.03
23241;BME280;11789;53.482;9.862;2022-08-11T02:28:01;102548.50;;;17.47;77.44
23241;BME280;11789;53.482;9.862;2022-08-11T02:30:40;102548.53;;;17.45;77.79
23241;BME280;11789;53.482;9.862;2022-08-11T02:33:34;102539.81;;;17.43;77.41
23241;BME280;11789;53.482;9.862;2022-08-11T02:36:08;102538.94;;;17.33;77.79
23241;BME280;11789;53.482;9.862;2022-08-11T02:41:47;102542.44;;;17.23;78.15
23241;BME280;11789;53.482;9.862;2022-08-11T02:44:54;102549.44;;;17.18;78.50
23241;BME280;11789;53.482;9.862;2022-08-11T02:47:41;102548.56;;;17.11;78.84
23241;BME280;11789;53.482;9.862;2022-08-11T02:53:38;102544.22;;;17.06;79.05
23241;BME280;11789;53.482;9.862;2022-08-11T02:56:24;102543.38;;;17.04;79.24
23241;BME280;11789;53.482;9.862;2022-08-11T02:59:06;102550.34;;;16.99;79.59
23241;BME280;11789;53.482;9.862;2022-08-11T03:01:58;102549.47;;;16.94;79.69
23241;BME280;11789;53.482;9.862;2022-08-11T03:04:37;102543.34;;;16.92;80.01
23241;BME280;11789;53.482;9.862;2022-08-11T03:10:28;102542.50;;;16.80;80.50
23241;BME280;11789;53.482;9.862;2022-08-11T03:13:28;102546.84;;;16.75;80.69
23241;BME280;11789;53.482;9.862;2022-08-11T03:24:39;102533.78;;;16.84;80.49
23241;BME280;11789;53.482;9.862;2022-08-11T03:27:20;102539.88;;;16.86;80.66
23241;BME280;11789;53.482;9.862;2022-08-11T03:30:28;102533.78;;;16.87;80.17
23241;BME280;11789;53.482;9.862;2022-08-11T03:33:22;102536.41;;;16.89;79.46
23241;BME280;11789;53.482;9.862;2022-08-11T03:41:56;102549.47;;;16.94;78.71
23241;BME280;11789;53.482;9.862;2022-08-11T03:47:24;102540.75;;;16.95;78.49
23241;BME280;11789;53.482;9.862;2022-08-11T03:52:47;102541.63;;;16.92;78.65
23241;BME280;11789;53.482;9.862;2022-08-11T04:07:18;102551.13;;;16.50;82.87
23241;BME280;11789;53.482;9.862;2022-08-11T04:18:50;102551.19;;;16.87;81.13
23241;BME280;11789;53.482;9.862;2022-08-11T04:33:21;102549.44;;;16.92;80.83
23241;BME280;11789;53.482;9.862;2022-08-11T04:36:09;102545.09;;;16.97;80.67
23241;BME280;11789;53.482;9.862;2022-08-11T04:41:59;102539.88;;;16.93;81.27
23241;BME280;11789;53.482;9.862;2022-08-11T04:54:30;102553.75;;;17.33;79.61
23241;BME280;11789;53.482;9.862;2022-08-11T04:57:36;102547.66;;;17.38;79.73
23241;BME280;11789;53.482;9.862;2022-08-11T05:00:31;102546.78;;;17.41;79.70
23241;BME280;11789;53.482;9.862;2022-08-11T05:03:45;102544.16;;;17.46;79.56
23241;BME280;11789;53.482;9.862;2022-08-11T05:06:34;102546.75;;;17.53;79.42
23241;BME280;11789;53.482;9.862;2022-08-11T05:12:05;102546.75;;;17.52;79.67
23241;BME280;11789;53.482;9.862;2022-08-11T05:14:54;102545.00;;;17.55;79.81
23241;BME280;11789;53.482;9.862;2022-08-11T05:17:59;102551.06;;;17.67;79.54
23241;BME280;11789;53.482;9.862;2022-08-11T05:20:54;102545.84;;;17.77;79.17
23241;BME280;11789;53.482;9.862;2022-08-11T05:23:43;102545.81;;;17.86;79.02
23241;BME280;11789;53.482;9.862;2022-08-11T05:26:38;102547.53;;;17.87;78.91
23241;BME280;11789;53.482;9.862;2022-08-11T05:29:45;102547.50;;;17.94;78.60
23241;BME280;11789;53.482;9.862;2022-08-11T05:32:39;102552.69;;;18.06;78.29
23241;BME280;11789;53.482;9.862;2022-08-11T05:35:41;102555.28;;;18.12;77.98
23241;BME280;11789;53.482;9.862;2022-08-11T05:38:27;102547.38;;;18.20;77.83
23241;BME280;11789;53.482;9.862;2022-08-11T05:41:13;102549.09;;;18.30;77.58
23241;BME280;11789;53.482;9.862;2022-08-11T05:44:00;102554.25;;;18.40;77.36
23241;BME280;11789;53.482;9.862;2022-08-11T05:46:48;102541.09;;;18.48;76.97
23241;BME280;11789;53.482;9.862;2022-08-11T05:49:36;102541.94;;;18.53;76.63
23241;BME280;11789;53.482;9.862;2022-08-11T05:52:23;102534.87;;;18.63;76.37
23241;BME280;11789;53.482;9.862;2022-08-11T05:55:09;102541.84;;;18.70;75.97
23241;BME280;11789;53.482;9.862;2022-08-11T05:57:58;102543.50;;;18.80;75.69
23241;BME280;11789;53.482;9.862;2022-08-11T06:00:25;102536.44;;;18.91;75.40
23241;BME280;11789;53.482;9.862;2022-08-11T06:03:00;102544.16;;;19.05;75.02
23241;BME280;11789;53.482;9.862;2022-08-11T06:05:36;102541.47;;;19.16;74.51
23241;BME280;11789;53.482;9.862;2022-08-11T06:08:05;102551.81;;;19.25;73.96
23241;BME280;11789;53.482;9.862;2022-08-11T06:10:36;102543.94;;;19.28;73.44
23241;BME280;11789;53.482;9.862;2022-08-11T06:13:06;102554.41;;;19.30;73.27
23241;BME280;11789;53.482;9.862;2022-08-11T06:15:42;102540.38;;;19.37;73.11
23241;BME280;11789;53.482;9.862;2022-08-11T06:18:09;102547.28;;;19.41;73.06
23241;BME280;11789;53.482;9.862;2022-08-11T06:20:45;102548.25;;;19.37;72.48
23241;BME280;11789;53.482;9.862;2022-08-11T06:23:12;102546.44;;;19.40;72.28
23241;BME280;11789;53.482;9.862;2022-08-11T06:25:39;102544.66;;;19.44;72.32
23241;BME280;11789;53.482;9.862;2022-08-11T06:28:06;102544.63;;;19.45;71.99
23241;BME280;11789;53.482;9.862;2022-08-11T06:33:36;102548.06;;;19.51;71.83
23241;BME280;11789;53.482;9.862;2022-08-11T06:39:12;102548.06;;;19.51;71.78
23241;BME280;11789;53.482;9.862;2022-08-11T06:41:52;102551.56;;;19.53;71.61
23241;BME280;11789;53.482;9.862;2022-08-11T06:44:32;102540.19;;;19.51;71.43
23241;BME280;11789;53.482;9.862;2022-08-11T06:47:10;102544.50;;;19.56;71.44
23241;BME280;11789;53.482;9.862;2022-08-11T06:49:41;102542.72;;;19.63;71.27
23241;BME280;11789;53.482;9.862;2022-08-11T06:52:35;102546.16;;;19.68;70.66
23241;BME280;11789;53.482;9.862;2022-08-11T06:55:10;102545.25;;;19.72;70.03
23241;BME280;11789;53.482;9.862;2022-08-11T06:57:38;102547.78;;;19.78;69.16
23241;BME280;11789;53.482;9.862;2022-08-11T07:00:25;102545.97;;;19.82;68.53
23241;BME280;11789;53.482;9.862;2022-08-11T07:03:10;102541.53;;;19.88;68.61
23241;BME280;11789;53.482;9.862;2022-08-11T07:14:23;102540.31;;;20.14;66.68
23241;BME280;11789;53.482;9.862;2022-08-11T07:17:13;102542.00;;;20.19;65.80
23241;BME280;11789;53.482;9.862;2022-08-11T07:19:42;102541.06;;;20.24;66.25
23241;BME280;11789;53.482;9.862;2022-08-11T07:22:30;102541.00;;;20.28;66.36
23241;BME280;11789;53.482;9.862;2022-08-11T07:25:15;102540.88;;;20.36;65.96
23241;BME280;11789;53.482;9.862;2022-08-11T07:28:06;102541.72;;;20.39;66.92
23241;BME280;11789;53.482;9.862;2022-08-11T07:30:57;102542.53;;;20.41;67.65
23241;BME280;11789;53.482;9.862;2022-08-11T07:33:31;102542.50;;;20.44;67.64
23241;BME280;11789;53.482;9.862;2022-08-11T07:36:04;102547.72;;;20.46;67.35
23241;BME280;11789;53.482;9.862;2022-08-11T07:38:38;102547.72;;;20.47;66.58
23241;BME280;11789;53.482;9.862;2022-08-11T07:41:11;102547.72;;;20.47;67.05
23241;BME280;11789;53.482;9.862;2022-08-11T07:43:39;102544.16;;;20.53;66.65
23241;BME280;11789;53.482;9.862;2022-08-11T07:46:06;102545.03;;;20.54;67.05
23241;BME280;11789;53.482;9.862;2022-08-11T07:48:51;102550.22;;;20.57;67.16
23241;BME280;11789;53.482;9.862;2022-08-11T07:51:37;102543.94;;;20.67;65.72
23241;BME280;11789;53.482;9.862;2022-08-11T07:54:24;102543.75;;;20.78;65.55
23241;BME280;11789;53.482;9.862;2022-08-11T07:56:50;102550.72;;;20.80;65.42
23241;BME280;11789;53.482;9.862;2022-08-11T07:59:18;102551.53;;;20.85;65.49
23241;BME280;11789;53.482;9.862;2022-08-11T08:02:02;102549.69;;;20.90;65.25
23241;BME280;11789;53.482;9.862;2022-08-11T08:04:47;102553.94;;;20.97;63.61
23241;BME280;11789;53.482;9.862;2022-08-11T08:07:33;102551.19;;;21.05;62.70
23241;BME280;11789;53.482;9.862;2022-08-11T08:10:18;102547.53;;;21.14;62.45
23241;BME280;11789;53.482;9.862;2022-08-11T08:13:05;102556.19;;;21.19;61.87
23241;BME280;11789;53.482;9.862;2022-08-11T08:15:51;102549.97;;;21.24;61.23
23241;BME280;11789;53.482;9.862;2022-08-11T08:18:36;102550.75;;;21.28;62.13
23241;BME280;11789;53.482;9.862;2022-08-11T08:21:04;102549.78;;;21.35;61.86
23241;BME280;11789;53.482;9.862;2022-08-11T08:23:42;102549.72;;;21.40;61.15
23241;BME280;11789;53.482;9.862;2022-08-11T08:26:13;102548.72;;;21.45;61.45
23241;BME280;11789;53.482;9.862;2022-08-11T08:29:04;102551.25;;;21.50;61.60
23241;BME280;11789;53.482;9.862;2022-08-11T08:31:49;102544.87;;;21.62;62.36
23241;BME280;11789;53.482;9.862;2022-08-11T08:34:16;102551.69;;;21.72;61.57
23241;BME280;11789;53.482;9.862;2022-08-11T08:36:43;102546.25;;;21.81;61.11
23241;BME280;11789;53.482;9.862;2022-08-11T08:39:11;102551.38;;;21.87;59.94
23241;BME280;11789;53.482;9.862;2022-08-11T08:41:37;102544.09;;;21.98;59.54
23241;BME280;11789;53.482;9.862;2022-08-11T08:44:08;102548.37;;;22.04;58.91
23241;BME280;11789;53.482;9.862;2022-08-11T08:46:46;102550.91;;;22.09;59.07
23241;BME280;11789;53.482;9.862;2022-08-11T08:49:18;102548.03;;;22.21;58.11
23241;BME280;11789;53.482;9.862;2022-08-11T08:51:51;102542.69;;;22.25;57.73
23241;BME280;11789;53.482;9.862;2022-08-11T08:54:22;102542.37;;;22.38;57.48
23241;BME280;11789;53.482;9.862;2022-08-11T08:56:53;102551.75;;;22.49;56.66
23241;BME280;11789;53.482;9.862;2022-08-11T08:59:21;102536.62;;;22.58;54.83
23241;BME280;11789;53.482;9.862;2022-08-11T09:01:57;102533.84;;;22.64;54.30
23241;BME280;11789;53.482;9.862;2022-08-11T09:04:44;102526.69;;;22.69;53.15
23241;BME280;11789;53.482;9.862;2022-08-11T09:07:11;102525.59;;;22.77;53.32
23241;BME280;11789;53.482;9.862;2022-08-11T09:09:57;102528.88;;;22.87;53.77
23241;BME280;11789;53.482;9.862;2022-08-11T09:12:29;102534.06;;;22.92;53.09
23241;BME280;11789;53.482;9.862;2022-08-11T09:14:56;102530.34;;;22.99;52.25
23241;BME280;11789;53.482;9.862;2022-08-11T09:17:26;102523.22;;;23.02;53.03
23241;BME280;11789;53.482;9.862;2022-08-11T09:19:56;102518.69;;;23.08;53.13
23241;BME280;11789;53.482;9.862;2022-08-11T09:22:34;102509.62;;;23.18;52.63
23241;BME280;11789;53.482;9.862;2022-08-11T09:25:21;102520.88;;;23.24;52.27
23241;BME280;11789;53.482;9.862;2022-08-11T09:28:12;102513.63;;;23.31;52.75
23241;BME280;11789;53.482;9.862;2022-08-11T09:30:43;102508.03;;;23.43;52.60
23241;BME280;11789;53.482;9.862;2022-08-11T09:33:13;102505.16;;;23.51;51.01
23241;BME280;11789;53.482;9.862;2022-08-11T09:35:41;102511.03;;;23.61;50.39
23241;BME280;11789;53.482;9.862;2022-08-11T09:38:14;102505.75;;;23.61;49.90
23241;BME280;11789;53.482;9.862;2022-08-11T09:40:59;102500.31;;;23.67;49.77
23241;BME280;11789;53.482;9.862;2022-08-11T09:43:27;102494.03;;;23.72;49.58
23241;BME280;11789;53.482;9.862;2022-08-11T09:46:12;102499.00;;;23.81;48.97
23241;BME280;11789;53.482;9.862;2022-08-11T09:48:44;102499.78;;;23.85;48.73
23241;BME280;11789;53.482;9.862;2022-08-11T09:51:11;102490.03;;;23.87;48.79
23241;BME280;11789;53.482;9.862;2022-08-11T09:53:40;102484.37;;;23.99;48.78
23241;BME280;11789;53.482;9.862;2022-08-11T09:56:15;102482.97;;;24.16;44.82
23241;BME280;11789;53.482;9.862;2022-08-11T09:59:01;102483.47;;;24.27;44.08
23241;BME280;11789;53.482;9.862;2022-08-11T10:01:42;102473.75;;;24.29;43.82
23241;BME280;11789;53.482;9.862;2022-08-11T10:04:14;102474.53;;;24.31;44.23
23241;BME280;11789;53.482;9.862;2022-08-11T10:06:43;102478.31;;;24.24;44.39
23241;BME280;11789;53.482;9.862;2022-08-11T10:09:50;102469.25;;;24.31;43.11
23241;BME280;11789;53.482;9.862;2022-08-11T10:12:22;102465.69;;;24.32;42.96
23241;BME280;11789;53.482;9.862;2022-08-11T10:14:55;102467.28;;;24.39;42.30
23241;BME280;11789;53.482;9.862;2022-08-11T10:17:42;102456.50;;;24.45;44.00
23241;BME280;11789;53.482;9.862;2022-08-11T10:20:31;102452.84;;;24.49;44.14
23241;BME280;11789;53.482;9.862;2022-08-11T10:22:58;102450.75;;;24.59;43.08
23241;BME280;11789;53.482;9.862;2022-08-11T10:25:45;102455.19;;;24.57;42.70
23241;BME280;11789;53.482;9.862;2022-08-11T10:28:30;102449.00;;;24.58;43.96
23241;BME280;11789;53.482;9.862;2022-08-11T10:30:57;102441.88;;;24.60;42.14
23241;BME280;11789;53.482;9.862;2022-08-11T10:33:43;102438.47;;;24.56;42.74
23241;BME280;11789;53.482;9.862;2022-08-11T10:36:34;102445.59;;;24.54;43.70
23241;BME280;11789;53.482;9.862;2022-08-11T10:39:07;102434.91;;;24.57;43.64
23241;BME280;11789;53.482;9.862;2022-08-11T10:41:34;102432.22;;;24.59;42.96
23241;BME280;11789;53.482;9.862;2022-08-11T10:44:21;102436.53;;;24.62;43.54
23241;BME280;11789;53.482;9.862;2022-08-11T10:46:47;102435.56;;;24.64;42.69
23241;BME280;11789;53.482;9.862;2022-08-11T10:49:33;102437.84;;;24.75;42.37
23241;BME280;11789;53.482;9.862;2022-08-11T10:51:59;102438.56;;;24.78;42.28
23241;BME280;11789;53.482;9.862;2022-08-11T10:54:44;102427.34;;;24.72;41.18
23241;BME280;11789;53.482;9.862;2022-08-11T10:57:29;102431.16;;;24.65;41.84
23241;BME280;11789;53.482;9.862;2022-08-11T11:00:14;102430.44;;;24.59;42.71
23241;BME280;11789;53.482;9.862;2022-08-11T11:02:42;102430.84;;;24.74;39.92
23241;BME280;11789;53.482;9.862;2022-08-11T11:05:15;102432.00;;;24.90;38.95
23241;BME280;11789;53.482;9.862;2022-08-11T11:08:04;102426.72;;;24.90;40.32
23241;BME280;11789;53.482;9.862;2022-08-11T11:10:54;102417.16;;;24.86;39.37
23241;BME280;11789;53.482;9.862;2022-08-11T11:13:21;102418.78;;;24.90;40.14
23241;BME280;11789;53.482;9.862;2022-08-11T11:16:07;102424.16;;;24.87;40.79
23241;BME280;11789;53.482;9.862;2022-08-11T11:18:52;102421.19;;;24.96;40.90
23241;BME280;11789;53.482;9.862;2022-08-11T11:21:19;102417.69;;;24.96;41.21
23241;BME280;11789;53.482;9.862;2022-08-11T11:26:59;102410.06;;;25.12;40.21
23241;BME280;11789;53.482;9.862;2022-08-11T11:35:22;102415.56;;;25.05;40.50
23241;BME280;11789;53.482;9.862;2022-08-11T11:37:51;102413.84;;;25.04;39.69
23241;BME280;11789;53.482;9.862;2022-08-11T11:40:21;102421.19;;;24.96;40.41
23241;BME280;11789;53.482;9.862;2022-08-11T11:42:49;102418.72;;;24.92;41.13
23241;BME280;11789;53.482;9.862;2022-08-11T11:45:17;102415.03;;;24.96;40.57
23241;BME280;11789;53.482;9.862;2022-08-11T11:47:43;102414.88;;;25.00;40.14
23241;BME280;11789;53.482;9.862;2022-08-11T11:50:10;102414.75;;;25.03;39.75
23241;BME280;11789;53.482;9.862;2022-08-11T11:52:38;102420.97;;;25.02;40.23
23241;BME280;11789;53.482;9.862;2022-08-11T11:55:04;102414.44;;;25.13;39.70
23241;BME280;11789;53.482;9.862;2022-08-11T11:57:30;102406.50;;;25.13;39.42
23241;BME280;11789;53.482;9.862;2022-08-11T12:00:30;102406.56;;;25.11;39.50
23241;BME280;11789;53.482;9.862;2022-08-11T12:03:14;102406.63;;;25.09;40.62
23241;BME280;11789;53.482;9.862;2022-08-11T12:05:42;102403.44;;;25.23;39.21
23241;BME280;11789;53.482;9.862;2022-08-11T12:08:08;102404.09;;;25.30;38.76
23241;BME280;11789;53.482;9.862;2022-08-11T12:13:14;102403.37;;;25.48;37.86
23241;BME280;11789;53.482;9.862;2022-08-11T12:16:16;102392.78;;;25.48;38.52
23241;BME280;11789;53.482;9.862;2022-08-11T12:18:45;102404.13;;;25.52;38.73
23241;BME280;11789;53.482;9.862;2022-08-11T12:21:13;102389.09;;;25.52;39.00
23241;BME280;11789;53.482;9.862;2022-08-11T12:23:41;102390.72;;;25.56;38.91
23241;BME280;11789;53.482;9.862;2022-08-11T12:26:26;102390.97;;;25.50;39.02
23241;BME280;11789;53.482;9.862;2022-08-11T12:29:11;102397.28;;;25.46;39.75
23241;BME280;11789;53.482;9.862;2022-08-11T12:31:39;102384.28;;;25.40;38.71
23241;BME280;11789;53.482;9.862;2022-08-11T12:34:08;102386.37;;;25.32;39.15
23241;BME280;11789;53.482;9.862;2022-08-11T12:36:36;102375.66;;;25.35;39.86
23241;BME280;11789;53.482;9.862;2022-08-11T12:39:06;102388.75;;;25.61;37.61
23241;BME280;11789;53.482;9.862;2022-08-11T12:41:33;102372.53;;;25.69;37.16
23241;BME280;11789;53.482;9.862;2022-08-11T12:44:22;102370.06;;;25.65;37.42
23241;BME280;11789;53.482;9.862;2022-08-11T12:47:08;102368.16;;;25.68;37.52
23241;BME280;11789;53.482;9.862;2022-08-11T12:49:37;102366.38;;;25.69;37.74
23241;BME280;11789;53.482;9.862;2022-08-11T12:52:26;102355.50;;;25.76;37.43
23241;BME280;11789;53.482;9.862;2022-08-11T12:55:01;102350.22;;;25.76;36.96
23241;BME280;11789;53.482;9.862;2022-08-11T12:57:45;102353.53;;;25.81;36.84
23241;BME280;11789;53.482;9.862;2022-08-11T13:00:31;102354.91;;;25.90;36.47
23241;BME280;11789;53.482;9.862;2022-08-11T13:03:18;102344.28;;;25.92;35.35
23241;BME280;11789;53.482;9.862;2022-08-11T13:06:04;102342.59;;;25.89;35.84
23241;BME280;11789;53.482;9.862;2022-08-11T13:08:33;102338.16;;;25.90;35.54
23241;BME280;11789;53.482;9.862;2022-08-11T13:11:01;102338.25;;;25.88;35.18
23241;BME280;11789;53.482;9.862;2022-08-11T13:13:47;102333.19;;;25.82;35.84
23241;BME280;11789;53.482;9.862;2022-08-11T13:16:13;102329.03;;;25.76;36.33
23241;BME280;11789;53.482;9.862;2022-08-11T13:18:40;102326.22;;;25.79;36.39
23241;BME280;11789;53.482;9.862;2022-08-11T13:21:09;102320.09;;;25.99;35.60
23241;BME280;11789;53.482;9.862;2022-08-11T13:23:37;102317.50;;;25.98;35.69
23241;BME280;11789;53.482;9.862;2022-08-11T13:26:03;102314.56;;;25.83;36.20
23241;BME280;11789;53.482;9.862;2022-08-11T13:28:30;102315.31;;;25.87;35.98
23241;BME280;11789;53.482;9.862;2022-08-11T13:30:56;102313.75;;;26.03;35.25
23241;BME280;11789;53.482;9.862;2022-08-11T13:33:43;102314.69;;;26.02;34.26
23241;BME280;11789;53.482;9.862;2022-08-11T13:36:11;102314.13;;;26.14;34.44
23241;BME280;11789;53.482;9.862;2022-08-11T13:38:39;102309.25;;;26.26;34.45
23241;BME280;11789;53.482;9.862;2022-08-11T13:41:06;102311.16;;;26.22;33.96
23241;BME280;11789;53.482;9.862;2022-08-11T13:43:53;102300.56;;;26.22;33.85
23241;BME280;11789;53.482;9.862;2022-08-11T13:46:20;102307.38;;;26.28;33.35
23241;BME280;11789;53.482;9.862;2022-08-11T13:48:47;102301.50;;;26.21;33.74
23241;BME280;11789;53.482;9.862;2022-08-11T13:51:14;102300.56;;;26.22;33.82
23241;BME280;11789;53.482;9.862;2022-08-11T13:54:04;102289.88;;;26.24;33.72
23241;BME280;11789;53.482;9.862;2022-08-11T13:56:30;102297.72;;;26.27;34.55
23241;BME280;11789;53.482;9.862;2022-08-11T13:58:59;102301.72;;;26.35;34.29
23241;BME280;11789;53.482;9.862;2022-08-11T14:01:28;102292.25;;;26.30;34.43
23241;BME280;11789;53.482;9.862;2022-08-11T14:03:58;102290.53;;;26.29;34.48
23241;BME280;11789;53.482;9.862;2022-08-11T14:06:26;102285.50;;;26.23;34.60
23241;BME280;11789;53.482;9.862;2022-08-11T14:08:53;102290.81;;;26.23;34.68
23241;BME280;11789;53.482;9.862;2022-08-11T14:11:19;102281.25;;;26.39;33.10
23241;BME280;11789;53.482;9.862;2022-08-11T14:14:06;102289.88;;;26.44;33.35
23241;BME280;11789;53.482;9.862;2022-08-11T14:16:40;102283.81;;;26.42;33.70
23241;BME280;11789;53.482;9.862;2022-08-11T14:19:08;102278.28;;;26.47;33.32
23241;BME280;11789;53.482;9.862;2022-08-11T14:21:41;102282.47;;;26.52;32.78
23241;BME280;11789;53.482;9.862;2022-08-11T14:24:26;102273.13;;;26.44;32.88
23241;BME280;11789;53.482;9.862;2022-08-11T14:26:54;102273.50;;;26.34;33.63
23241;BME280;11789;53.482;9.862;2022-08-11T14:29:22;102268.94;;;26.38;32.74
23241;BME280;11789;53.482;9.862;2022-08-11T14:31:53;102262.03;;;26.34;33.36
23241;BME280;11789;53.482;9.862;2022-08-11T14:34:38;102261.38;;;26.49;32.19
23241;BME280;11789;53.482;9.862;2022-08-11T14:37:07;102256.09;;;26.68;32.31
23241;BME280;11789;53.482;9.862;2022-08-11T14:39:47;102261.03;;;26.76;32.52
23241;BME280;11789;53.482;9.862;2022-08-11T14:42:16;102263.69;;;26.76;31.99
23241;BME280;11789;53.482;9.862;2022-08-11T14:45:05;102249.75;;;26.71;31.79
23241;BME280;11789;53.482;9.862;2022-08-11T14:47:52;102249.94;;;26.68;32.16
23241;BME280;11789;53.482;9.862;2022-08-11T14:50:24;102242.59;;;26.54;33.21
23241;BME280;11789;53.482;9.862;2022-08-11T14:52:53;102247.53;;;26.43;33.29
23241;BME280;11789;53.482;9.862;2022-08-11T14:55:23;102247.16;;;26.50;32.84
23241;BME280;11789;53.482;9.862;2022-08-11T14:58:15;102239.38;;;26.47;33.07
23241;BME280;11789;53.482;9.862;2022-08-11T15:00:42;102249.12;;;26.47;32.71
23241;BME280;11789;53.482;9.862;2022-08-11T15:03:11;102238.16;;;26.54;32.56
23241;BME280;11789;53.482;9.862;2022-08-11T15:05:53;102243.03;;;26.63;32.72
23241;BME280;11789;53.482;9.862;2022-08-11T15:08:22;102242.94;;;26.65;32.39
23241;BME280;11789;53.482;9.862;2022-08-11T15:11:13;102240.37;;;26.63;31.90
23241;BME280;11789;53.482;9.862;2022-08-11T15:14:00;102234.44;;;26.58;32.18
23241;BME280;11789;53.482;9.862;2022-08-11T15:16:27;102227.53;;;26.54;32.55
23241;BME280;11789;53.482;9.862;2022-08-11T15:19:13;102228.34;;;26.56;31.99
23241;BME280;11789;53.482;9.862;2022-08-11T15:21:40;102224.81;;;26.56;32.13
23241;BME280;11789;53.482;9.862;2022-08-11T15:24:24;102228.59;;;26.50;32.57
23241;BME280;11789;53.482;9.862;2022-08-11T15:26:51;102226.69;;;26.54;32.22
23241;BME280;11789;53.482;9.862;2022-08-11T15:29:37;102226.69;;;26.54;32.54
23241;BME280;11789;53.482;9.862;2022-08-11T15:32:24;102219.75;;;26.51;33.70
23241;BME280;11789;53.482;9.862;2022-08-11T15:35:10;102222.53;;;26.48;33.75
23241;BME280;11789;53.482;9.862;2022-08-11T15:37:57;102220.53;;;26.53;32.87
23241;BME280;11789;53.482;9.862;2022-08-11T15:40:28;102216.06;;;26.54;33.22
23241;BME280;11789;53.482;9.862;2022-08-11T15:43:26;102207.13;;;26.56;33.81
23241;BME280;11789;53.482;9.862;2022-08-11T15:46:34;102207.97;;;26.57;33.58
23241;BME280;11789;53.482;9.862;2022-08-11T15:49:27;102197.88;;;26.46;34.14
23241;BME280;11789;53.482;9.862;2022-08-11T15:52:15;102203.03;;;26.49;34.52
23241;BME280;11789;53.482;9.862;2022-08-11T15:54:42;102198.88;;;26.44;35.64
23241;BME280;11789;53.482;9.862;2022-08-11T15:57:11;102196.13;;;26.45;36.02
23241;BME280;11789;53.482;9.862;2022-08-11T16:00:04;102195.16;;;26.48;36.28
23241;BME280;11789;53.482;9.862;2022-08-11T16:02:50;102195.87;;;26.51;36.59
23241;BME280;11789;53.482;9.862;2022-08-11T16:05:20;102196.91;;;26.66;36.40
23241;BME280;11789;53.482;9.862;2022-08-11T16:08:06;102192.75;;;26.60;36.40
23241;BME280;11789;53.482;9.862;2022-08-11T16:10:34;102189.91;;;26.65;35.91
23241;BME280;11789;53.482;9.862;2022-08-11T16:13:01;102187.13;;;26.68;35.76
23241;BME280;11789;53.482;9.862;2022-08-11T16:15:43;102190.84;;;26.64;36.11
23241;BME280;11789;53.482;9.862;2022-08-11T16:18:42;102182.78;;;26.65;36.28
23241;BME280;11789;53.482;9.862;2022-08-11T16:21:15;102193.13;;;26.72;36.22
23241;BME280;11789;53.482;9.862;2022-08-11T16:23:45;102191.25;;;26.74;35.86
23241;BME280;11789;53.482;9.862;2022-08-11T16:26:17;102185.97;;;26.74;37.07
23241;BME280;11789;53.482;9.862;2022-08-11T16:28:44;102181.94;;;26.65;38.06